LGTSLGKL

Guest
Details From LGTS - Thessalonik Makedonia
To LGKL - KALAMATA
Flight Number -
Tags generated
Created
Modified
Stats Distance 252 nm / 466 km
Max Altitude 29,900 ft / 9,114 m
Waypoints 6
Social Downloads 2
Likes 0
Share VATSIM

Download

Looking for another format? Having issues loading an existing format? Contact us
Advertisement - Login to hide

Notes

Basic altitude profile: - Ascent Rate: 2500ft/min - Ascent Speed: 250kts - Cruise Altitude: 35000ft - Cruise Speed: 420kts - Descent Rate: 1500ft/min - Descent Speed: 250kts

Route

LGTS SKP UB1 ABLON LGKL

ID Type Via Altitude Latitude Longitude Leg Dist Tot Dist Heading (true) Name
O LGTS APT - 0 ft / 0 m 40.51952˚ 22.97202˚ - 0 nm - Thessalonik Makedonia
SKP VOR - 29,600 ft / 9,022 m 39.18083˚ 23.61583˚ 85 nm 85 nm 160° / 160° SKOPELOS VOR-DME
OMIRO FIX UB1 (AWY-HI) 29,900 ft / 9,114 m 38.75000˚ 23.66722˚ 25 nm 111 nm 175° / 175° -
DILOP FIX UB1 (AWY-HI) 23,500 ft / 7,163 m 38.33333˚ 23.71639˚ 25 nm 136 nm 175° / 175° -
ABLON FIX UB1 (AWY-HI) 23,500 ft / 7,163 m 38.16944˚ 23.73556˚ 9 nm 146 nm 175° / 175° -
O LGKL APT - 0 ft / 0 m 37.06832˚ 22.02552˚ 104 nm 251 nm 231° / 230° KALAMATA

Altitude Profile

Advertisement - Login to hide

Weather


0- 5 10 15 20 25 30 35+ Temperature / ° C

Clouds and Precipitation
Forecast for 2017-12-17 18:00 UTC. Updated 33 minutes ago

Ground ~20,000 ft ~40,000 ft Winds

LGTS

Details ICAO LGTS (SKG)
Name Thessalonik Makedonia
Region Greece
Timezone Europe/Athens (UTC+2.0)
Stats Elevation 22 ft / 7 m (AMSL)
Location 40.519522° 22.972017°
Runways 2
Magnetic Variation 4.623° E

METAR

LGTS 171720Z 34012KT 9999 FEW010 10/02 Q1011 NOSIG

Decode

TAF

TAF LGTS 171100Z 1712/1812 34015KT 9999 SCT030 TEMPO 1712/1812 34015G25KT

Decode

Departure Runways

ID Width Length Bearing (true) Bearing (mag) Surface Threshold Offset Overrun Length
10 164 ft / 50 m 7,990 ft / 2,435 m 103.95° 99.33° Asphalt 0 ft / 0 m 150 ft / 46 m
16 197 ft / 60 m 7,927 ft / 2,416 m 166.35° 161.73° Asphalt 0 ft / 0 m 200 ft / 61 m
28 164 ft / 50 m 7,990 ft / 2,435 m 283.97° 279.35° Asphalt 0 ft / 0 m 150 ft / 46 m
34 197 ft / 60 m 7,927 ft / 2,416 m 346.36° 341.74° Asphalt 0 ft / 0 m 200 ft / 61 m

LGKL

Details ICAO LGKL (KLX)
Name KALAMATA
Region Greece
Timezone Europe/Athens (UTC+2.0)
Stats Elevation 26 ft / 8 m (AMSL)
Location 37.068320° 22.025523°
Runways 1
Magnetic Variation 4.163° E

METAR

LGKL 171720Z 00000KT 9999 FEW025 10/07 Q1015

Decode

TAF

Not found

Destination Runways

ID Width Length Bearing (true) Bearing (mag) Surface Threshold Offset Overrun Length
17R 148 ft / 45 m 9,274 ft / 2,827 m 169.51° 165.35° Asphalt 240 ft / 73 m 320 ft / 98 m
35L 148 ft / 45 m 9,274 ft / 2,827 m 349.51° 345.35° Asphalt 250 ft / 76 m 310 ft / 94 m

Popular Alternatives